Time;durP1;ratioP1;P1;durP2;ratioP2;P2;SDS_P1;SDS_P2;PMS_P1;PMS_P2;Temp;Humidity;BMP_temperature;BMP_pressure;BME280_temperature;BME280_humidity;BME280_pressure;Samples;Min_cycle;Max_cycle;Signal;HPM_P1;HPM_P2
2022/05/14 00:01:20;;;;;;;1.30;1.13;;;22.90;46.60;;;;;;5023818;28;20430;-48
2022/05/14 00:03:48;;;;;;;2.00;1.33;;;22.90;46.60;;;;;;5022129;28;20460;-48
2022/05/14 00:06:21;;;;;;;1.97;1.40;;;22.90;46.50;;;;;;5021115;28;20555;-49
2022/05/14 00:08:50;;;;;;;1.20;1.10;;;22.90;46.60;;;;;;5022609;28;20473;-49
2022/05/14 00:14:24;;;;;;;1.43;1.33;;;22.90;46.70;;;;;;5012549;28;21319;-49
2022/05/14 00:17:11;;;;;;;1.77;1.20;;;22.90;46.80;;;;;;5028297;28;20444;-47
2022/05/14 00:19:58;;;;;;;1.37;1.27;;;22.90;46.70;;;;;;5019484;28;20820;-49
2022/05/14 00:22:35;;;;;;;1.73;1.20;;;22.90;46.80;;;;;;5023767;28;20441;-48
2022/05/14 00:25:04;;;;;;;1.13;1.13;;;22.90;46.90;;;;;;5024705;28;20903;-49
2022/05/14 00:27:32;;;;;;;2.93;1.27;;;22.90;46.80;;;;;;5013951;28;20759;-48
2022/05/14 00:30:02;;;;;;;1.27;1.10;;;22.90;47.00;;;;;;5025681;28;20469;-49
2022/05/14 00:32:30;;;;;;;2.37;0.97;;;22.90;47.00;;;;;;5027422;28;20437;-48
2022/05/14 00:34:58;;;;;;;1.30;1.20;;;22.90;47.00;;;;;;5022792;28;20506;-49
2022/05/14 00:37:26;;;;;;;2.17;1.43;;;22.90;48.30;;;;;;5022070;28;20462;-49
2022/05/14 00:39:55;;;;;;;1.87;1.00;;;22.90;47.10;;;;;;5026313;28;20987;-49
2022/05/14 00:42:24;;;;;;;1.77;1.10;;;22.80;47.00;;;;;;5015699;28;20445;-47
2022/05/14 00:44:52;;;;;;;1.30;1.20;;;22.80;47.10;;;;;;5021934;28;20476;-49
2022/05/14 00:47:21;;;;;;;1.40;1.30;;;22.90;47.30;;;;;;5026956;28;20464;-49
2022/05/14 00:49:49;;;;;;;1.77;1.50;;;22.90;47.20;;;;;;5021177;28;20545;-48
2022/05/14 00:52:21;;;;;;;1.60;1.30;;;22.80;47.20;;;;;;5026618;28;20939;-48
2022/05/14 00:54:54;;;;;;;2.83;1.57;;;22.80;47.00;;;;;;5025645;28;20476;-49
2022/05/14 00:57:26;;;;;;;1.37;1.13;;;22.80;47.00;;;;;;5015057;28;20988;-49
2022/05/14 00:59:56;;;;;;;1.73;1.47;;;22.80;47.00;;;;;;5024964;28;20544;-48
2022/05/14 01:02:25;;;;;;;1.67;1.10;;;22.80;47.00;;;;;;5027186;28;20958;-48
2022/05/14 01:04:53;;;;;;;2.20;1.30;;;22.80;47.00;;;;;;5024028;28;20481;-49
2022/05/14 01:07:23;;;;;;;1.40;1.27;;;22.80;47.00;;;;;;5022102;28;20495;-49
2022/05/14 01:09:58;;;;;;;2.30;1.20;;;22.80;47.00;;;;;;5023821;28;20491;-47
2022/05/14 01:12:28;;;;;;;1.97;1.27;;;22.80;47.00;;;;;;5020177;28;20833;-48
2022/05/14 01:15:08;;;;;;;1.43;1.33;;;22.80;47.00;;;;;;5024262;28;20480;-49
2022/05/14 01:17:57;;;;;;;1.50;1.40;;;22.80;47.00;;;;;;5025640;28;20433;-48
2022/05/14 01:20:25;;;;;;;1.60;1.10;;;22.80;46.90;;;;;;5024814;28;21057;-49
2022/05/14 01:23:02;;;;;;;1.53;1.00;;;22.80;46.70;;;;;;5010189;28;20448;-49
2022/05/14 01:28:27;;;;;;;1.27;1.17;;;22.80;46.90;;;;;;5019311;28;20441;-49
2022/05/14 01:30:58;;;;;;;1.30;1.20;;;22.70;46.80;;;;;;5025012;28;20798;-48
2022/05/14 01:33:27;;;;;;;1.70;1.20;;;22.70;46.90;;;;;;5025099;28;20441;-48
2022/05/14 01:35:56;;;;;;;1.37;1.20;;;22.70;46.80;;;;;;5016363;28;20483;-49
2022/05/14 01:38:25;;;;;;;1.60;1.50;;;22.70;46.70;;;;;;5019403;28;20444;-50
2022/05/14 01:40:53;;;;;;;1.73;1.20;;;22.70;46.80;;;;;;5025814;28;20485;-49
2022/05/14 01:43:22;;;;;;;1.40;1.27;;;22.70;46.90;;;;;;5023864;28;20790;-49
2022/05/14 01:45:51;;;;;;;1.50;1.40;;;22.70;47.00;;;;;;5022783;28;20489;-49
2022/05/14 01:48:20;;;;;;;1.53;1.23;;;22.70;47.10;;;;;;5024127;28;20456;-50
2022/05/14 01:50:48;;;;;;;2.03;1.27;;;22.70;47.00;;;;;;5014807;28;20530;-48
2022/05/14 01:53:18;;;;;;;1.47;1.37;;;22.70;47.10;;;;;;5024492;28;20438;-48
2022/05/14 01:55:46;;;;;;;1.47;1.00;;;22.70;47.20;;;;;;5024155;28;20542;-48
2022/05/14 02:01:07;;;;;;;1.80;1.27;;;22.70;47.10;;;;;;5024979;28;20483;-49
2022/05/14 02:03:36;;;;;;;1.77;1.40;;;22.70;47.00;;;;;;5025799;28;20792;-49
2022/05/14 02:06:05;;;;;;;1.43;1.33;;;22.60;47.10;;;;;;5015775;28;20479;-49
2022/05/14 02:08:33;;;;;;;0.97;0.90;;;22.70;47.10;;;;;;5024837;28;20812;-48
2022/05/14 02:11:02;;;;;;;2.43;1.20;;;22.70;47.20;;;;;;5024020;28;20564;-50
2022/05/14 02:13:31;;;;;;;1.23;1.03;;;22.70;47.10;;;;;;5021298;28;20449;-49
2022/05/14 02:16:19;;;;;;;2.67;1.10;;;22.60;47.00;;;;;;5023078;28;20501;-49
2022/05/14 02:18:47;;;;;;;1.87;1.23;;;22.60;47.20;;;;;;5024111;28;20462;-48
2022/05/14 02:21:18;;;;;;;0.90;0.90;;;22.60;47.10;;;;;;5024017;28;20945;-49
2022/05/14 02:23:46;;;;;;;1.93;1.07;;;22.60;47.30;;;;;;5023260;28;20435;-50
2022/05/14 02:26:15;;;;;;;1.13;1.03;;;22.60;47.40;;;;;;5019833;28;21000;-50
2022/05/14 02:28:45;;;;;;;1.20;1.10;;;22.60;47.60;;;;;;5020386;28;20440;-48
2022/05/14 02:31:14;;;;;;;1.17;0.90;;;22.60;47.50;;;;;;5024598;28;20449;-49
2022/05/14 02:33:44;;;;;;;1.30;1.00;;;22.60;47.60;;;;;;5021725;28;20955;-49
2022/05/14 02:36:12;;;;;;;1.10;1.00;;;22.60;47.50;;;;;;5023155;28;20860;-49
2022/05/14 02:38:41;;;;;;;1.60;0.90;;;22.60;47.50;;;;;;5023702;28;20440;-49
2022/05/14 02:41:12;;;;;;;1.33;1.10;;;22.50;47.60;;;;;;5024566;28;20443;-49
2022/05/14 02:43:40;;;;;;;1.20;1.10;;;22.50;47.50;;;;;;5019634;28;20460;-49
2022/05/14 02:46:08;;;;;;;1.37;1.07;;;22.50;47.60;;;;;;5024052;28;20456;-50
2022/05/14 02:48:37;;;;;;;1.20;1.10;;;22.50;47.70;;;;;;5024402;28;20871;-49
2022/05/14 02:51:07;;;;;;;1.37;1.27;;;22.50;47.70;;;;;;5011797;28;20456;-49
2022/05/14 02:53:35;;;;;;;1.23;1.13;;;22.50;47.80;;;;;;5021174;28;20488;-49
2022/05/14 02:56:04;;;;;;;1.00;0.80;;;22.50;47.80;;;;;;5014329;28;20531;-49
2022/05/14 03:01:18;;;;;;;0.90;0.90;;;22.50;47.70;;;;;;5023374;28;20444;-50
2022/05/14 03:03:47;;;;;;;1.73;1.40;;;22.50;47.80;;;;;;5022713;28;20437;-49
2022/05/14 03:06:16;;;;;;;1.47;1.13;;;22.50;47.80;;;;;;5017526;28;21017;-48
2022/05/14 03:08:44;;;;;;;1.23;1.13;;;22.50;47.70;;;;;;5022271;28;20932;-49
2022/05/14 03:11:32;;;;;;;1.73;0.90;;;22.50;47.60;;;;;;5020120;28;20556;-48
2022/05/14 03:14:18;;;;;;;1.53;1.20;;;22.50;47.70;;;;;;5016112;28;20467;-46
2022/05/14 03:17:06;;;;;;;1.33;1.10;;;22.50;49.00;;;;;;5025064;28;21010;-49
2022/05/14 03:19:53;;;;;;;1.53;1.10;;;22.50;47.70;;;;;;5023587;28;20482;-47
2022/05/14 03:22:42;;;;;;;1.27;0.93;;;22.40;47.70;;;;;;5031994;28;20835;-47
2022/05/14 03:25:29;;;;;;;2.83;0.87;;;22.40;47.60;;;;;;5021619;28;20460;-46
2022/05/14 03:28:16;;;;;;;1.20;1.10;;;22.40;47.60;;;;;;5018417;28;20451;-46
2022/05/14 03:31:04;;;;;;;1.20;1.10;;;22.40;47.80;;;;;;5023789;28;20458;-47
2022/05/14 03:33:51;;;;;;;0.90;0.80;;;22.40;47.80;;;;;;5022563;28;20467;-47
2022/05/14 03:36:38;;;;;;;1.77;0.97;;;22.40;47.80;;;;;;5010427;28;20806;-47
2022/05/14 03:39:27;;;;;;;1.33;1.17;;;22.40;47.80;;;;;;5018723;28;20521;-47
2022/05/14 03:41:56;;;;;;;3.40;1.00;;;22.40;47.80;;;;;;5018360;28;21002;-48
2022/05/14 03:44:25;;;;;;;1.10;1.00;;;22.40;47.80;;;;;;5021629;28;20463;-47
2022/05/14 03:46:55;;;;;;;1.23;0.80;;;22.40;47.90;;;;;;5022902;28;20460;-47
2022/05/14 03:49:24;;;;;;;1.23;0.93;;;22.40;47.90;;;;;;5023404;28;20478;-48
2022/05/14 03:51:53;;;;;;;1.60;1.20;;;22.40;48.00;;;;;;5013553;28;20479;-48
2022/05/14 03:54:23;;;;;;;1.40;1.30;;;22.30;47.80;;;;;;5016621;28;20501;-48
2022/05/14 03:56:53;;;;;;;1.17;1.07;;;22.30;47.90;;;;;;5016283;28;20844;-46
2022/05/14 03:59:23;;;;;;;1.77;1.20;;;22.30;47.90;;;;;;5022516;28;20468;-47
2022/05/14 04:01:52;;;;;;;1.30;1.10;;;22.30;48.00;;;;;;5024660;28;20442;-47
2022/05/14 04:04:20;;;;;;;1.20;0.97;;;22.30;47.90;;;;;;5023105;28;20995;-48
2022/05/14 04:06:49;;;;;;;1.13;1.03;;;22.30;47.90;;;;;;5022647;28;20495;-47
2022/05/14 04:09:18;;;;;;;1.00;0.90;;;22.30;48.10;;;;;;5023016;28;20468;-46
2022/05/14 04:11:46;;;;;;;2.17;1.30;;;22.30;48.20;;;;;;5019245;28;20449;-47
2022/05/14 04:14:16;;;;;;;1.27;1.10;;;22.30;48.10;;;;;;5015091;28;20460;-48
2022/05/14 04:16:45;;;;;;;1.10;1.00;;;22.30;48.10;;;;;;5021959;28;20872;-48
2022/05/14 04:19:14;;;;;;;1.30;1.20;;;22.30;48.20;;;;;;5020674;28;20460;-46
2022/05/14 04:21:43;;;;;;;1.43;0.97;;;22.30;48.20;;;;;;5019398;28;20435;-47
2022/05/14 04:24:11;;;;;;;1.63;1.13;;;22.30;48.20;;;;;;5020384;28;20468;-48
2022/05/14 04:26:40;;;;;;;1.00;0.90;;;22.30;48.20;;;;;;5016385;28;20449;-47
2022/05/14 04:29:09;;;;;;;1.97;0.97;;;22.20;48.10;;;;;;5014783;28;20526;-47
2022/05/14 04:31:40;;;;;;;3.33;1.30;;;22.30;48.20;;;;;;5022533;28;20535;-47
2022/05/14 04:34:09;;;;;;;1.63;1.10;;;22.20;48.20;;;;;;5019872;28;20477;-46
2022/05/14 04:36:50;;;;;;;1.30;1.20;;;22.20;48.10;;;;;;5024476;28;20563;-46
2022/05/14 04:39:18;;;;;;;1.57;1.20;;;22.20;48.20;;;;;;5021961;28;20518;-46
2022/05/14 04:41:47;;;;;;;2.97;1.17;;;22.20;48.20;;;;;;5016793;28;20459;-46
2022/05/14 04:44:16;;;;;;;1.33;1.20;;;22.20;48.20;;;;;;5020747;28;20914;-47
2022/05/14 04:46:45;;;;;;;1.50;1.40;;;22.20;48.20;;;;;;5024020;28;20455;-47
2022/05/14 04:49:14;;;;;;;1.10;0.97;;;22.20;48.30;;;;;;5024735;23;20953;-47
2022/05/14 04:51:42;;;;;;;1.20;1.10;;;22.20;49.60;;;;;;5002251;28;20844;-48
2022/05/14 04:54:11;;;;;;;1.63;1.33;;;22.20;48.30;;;;;;4995138;28;20869;-48
2022/05/14 04:56:39;;;;;;;0.90;0.90;;;22.20;48.40;;;;;;4972748;28;20486;-47
2022/05/14 04:59:07;;;;;;;1.17;0.90;;;22.20;48.40;;;;;;4976691;28;20549;-47
2022/05/14 05:01:36;;;;;;;1.00;0.90;;;22.10;48.20;;;;;;4995884;28;20442;-48
2022/05/14 05:04:04;;;;;;;2.47;1.33;;;22.20;48.50;;;;;;4985478;28;20893;-48
2022/05/14 05:06:33;;;;;;;1.23;1.10;;;22.10;48.30;;;;;;4985874;28;20461;-48
2022/05/14 05:09:01;;;;;;;1.40;1.23;;;22.10;48.30;;;;;;4986923;28;20461;-48
2022/05/14 05:11:30;;;;;;;1.43;0.90;;;22.10;48.40;;;;;;4982183;28;20533;-47
2022/05/14 05:13:58;;;;;;;1.73;1.17;;;22.10;48.40;;;;;;4981758;28;20486;-49
2022/05/14 05:16:27;;;;;;;1.43;1.27;;;22.10;48.40;;;;;;4987422;28;20477;-45
2022/05/14 05:18:55;;;;;;;0.80;0.73;;;22.10;48.40;;;;;;4986184;28;20453;-48
2022/05/14 05:21:25;;;;;;;1.90;1.30;;;22.10;48.60;;;;;;4984172;28;20513;-48
2022/05/14 05:23:53;;;;;;;1.40;1.30;;;22.10;48.60;;;;;;4986331;28;20973;-48
2022/05/14 05:26:22;;;;;;;1.57;1.20;;;22.10;48.60;;;;;;4982562;28;20493;-48
2022/05/14 05:28:50;;;;;;;1.40;1.23;;;22.10;48.50;;;;;;4976736;28;21026;-48
2022/05/14 05:31:18;;;;;;;1.23;0.97;;;22.10;48.50;;;;;;4987093;28;20437;-48
2022/05/14 05:34:04;;;;;;;1.30;1.20;;;22.10;48.60;;;;;;4983291;28;20473;-47
2022/05/14 05:36:34;;;;;;;2.27;1.20;;;22.10;48.50;;;;;;4985338;28;20948;-49
2022/05/14 05:39:02;;;;;;;1.37;1.27;;;22.10;48.70;;;;;;4985049;28;20535;-48
2022/05/14 05:41:32;;;;;;;1.33;1.23;;;22.10;48.60;;;;;;4982532;28;20486;-49
2022/05/14 05:44:01;;;;;;;1.23;1.03;;;22.10;48.60;;;;;;4977667;28;20466;-46
2022/05/14 05:46:29;;;;;;;1.37;1.03;;;22.10;48.30;;;;;;4987083;28;21048;-49
2022/05/14 05:48:57;;;;;;;0.90;0.80;;;22.00;48.30;;;;;;4985966;28;20555;-48
2022/05/14 05:51:26;;;;;;;1.00;0.90;;;22.10;48.50;;;;;;4982584;28;20975;-48
2022/05/14 05:56:47;;;;;;;1.63;1.20;;;22.00;48.40;;;;;;4982412;28;20571;-47
2022/05/14 05:59:16;;;;;;;1.90;1.10;;;22.00;48.60;;;;;;4978101;28;20470;-46
2022/05/14 06:01:46;;;;;;;1.80;1.33;;;22.00;48.50;;;;;;4986010;28;20438;-49
2022/05/14 06:04:15;;;;;;;1.60;1.50;;;22.00;49.70;;;;;;4983267;28;20565;-47
2022/05/14 06:06:44;;;;;;;1.03;1.00;;;22.00;48.70;;;;;;4984445;28;20968;-48
2022/05/14 06:09:17;;;;;;;1.80;1.10;;;22.00;48.60;;;;;;4984705;28;20869;-49
2022/05/14 06:11:47;;;;;;;3.20;1.50;;;22.00;48.70;;;;;;4979704;28;20451;-49
2022/05/14 06:14:15;;;;;;;1.40;1.10;;;22.00;48.60;;;;;;4983657;28;20985;-49
2022/05/14 06:16:44;;;;;;;1.60;1.33;;;22.00;49.90;;;;;;4985330;28;20864;-48
2022/05/14 06:19:12;;;;;;;1.50;1.40;;;22.00;49.80;;;;;;4984178;28;20853;-49
2022/05/14 06:21:41;;;;;;;0.97;0.90;;;22.00;48.70;;;;;;4984221;28;20450;-48
2022/05/14 06:24:10;;;;;;;1.57;1.33;;;22.00;48.70;;;;;;4983669;28;20477;-48
2022/05/14 06:26:40;;;;;;;1.53;1.13;;;21.90;48.60;;;;;;4980280;28;20474;-48
2022/05/14 06:29:29;;;;;;;1.50;1.40;;;21.90;48.70;;;;;;4977997;28;20468;-49
2022/05/14 06:31:57;;;;;;;1.30;1.10;;;22.00;48.50;;;;;;4978812;28;20469;-52
2022/05/14 06:34:29;;;;;;;1.60;1.20;;;21.90;48.70;;;;;;4980706;28;20477;-48
2022/05/14 06:36:57;;;;;;;1.30;0.90;;;22.00;48.80;;;;;;4974200;28;20489;-49
2022/05/14 06:39:27;;;;;;;1.57;1.30;;;21.90;48.70;;;;;;4984593;28;20466;-49
2022/05/14 06:41:58;;;;;;;1.60;1.50;;;21.90;48.70;;;;;;4978040;28;20962;-49
2022/05/14 06:44:26;;;;;;;3.07;1.60;;;21.90;48.60;;;;;;4977474;28;20465;-49
2022/05/14 06:46:55;;;;;;;1.40;1.30;;;21.90;48.30;;;;;;4984851;28;20453;-47
2022/05/14 06:49:23;;;;;;;2.10;1.33;;;21.90;48.50;;;;;;4984300;28;20469;-48
2022/05/14 06:51:52;;;;;;;1.40;1.20;;;21.90;48.40;;;;;;4983285;28;20817;-47
2022/05/14 06:54:22;;;;;;;2.10;1.60;;;21.90;48.40;;;;;;4983428;28;20485;-47
2022/05/14 06:56:51;;;;;;;2.10;1.27;;;21.90;48.20;;;;;;4978774;28;20525;-48
2022/05/14 06:59:22;;;;;;;2.03;1.20;;;21.90;47.20;;;;;;4981123;28;20496;-49
2022/05/14 07:01:50;;;;;;;2.80;1.73;;;21.90;48.20;;;;;;4966782;28;20478;-47
2022/05/14 07:07:06;;;;;;;1.53;1.23;;;21.90;47.90;;;;;;4966469;28;20493;-49
2022/05/14 07:09:35;;;;;;;3.30;1.93;;;21.90;47.70;;;;;;4976321;28;20485;-49
2022/05/14 07:12:08;;;;;;;2.00;1.80;;;21.90;47.40;;;;;;4971316;28;20443;-49
2022/05/14 07:14:40;;;;;;;1.60;1.50;;;21.90;47.20;;;;;;4982187;28;20469;-49
2022/05/14 07:17:11;;;;;;;1.70;1.57;;;21.90;47.50;;;;;;4985094;28;20475;-47
2022/05/14 07:19:40;;;;;;;2.60;1.67;;;21.90;47.50;;;;;;4983350;28;20477;-49
2022/05/14 07:22:13;;;;;;;1.60;1.50;;;21.90;47.50;;;;;;4984422;28;20422;-49
2022/05/14 07:25:00;;;;;;;1.87;1.20;;;21.90;47.80;;;;;;4983298;28;20460;-48
2022/05/14 07:27:49;;;;;;;3.23;1.63;;;21.90;47.90;;;;;;4970442;28;20614;-48
2022/05/14 07:30:20;;;;;;;2.63;1.57;;;21.90;47.90;;;;;;4979116;28;20653;-48
2022/05/14 07:32:48;;;;;;;2.77;1.43;;;21.90;48.10;;;;;;4984623;28;20469;-49
2022/05/14 07:35:17;;;;;;;1.70;1.60;;;21.90;48.10;;;;;;4983180;28;20472;-48
2022/05/14 07:37:49;;;;;;;1.30;1.17;;;21.90;48.20;;;;;;4972021;28;20472;-48
2022/05/14 07:40:21;;;;;;;2.35;1.33;;;21.90;49.50;;;;;;4982015;28;21018;-47
2022/05/14 07:42:54;;;;;;;4.07;2.30;;;21.90;48.00;;;;;;4979153;28;20593;-47
2022/05/14 07:45:29;;;;;;;2.63;2.13;;;22.00;47.10;;;;;;4982455;28;20484;-48
2022/05/14 07:47:59;;;;;;;3.00;1.63;;;22.00;47.20;;;;;;4983010;28;20437;-47
2022/05/14 07:50:28;;;;;;;4.43;2.00;;;22.00;47.20;;;;;;4980080;28;20469;-48
2022/05/14 07:52:57;;;;;;;7.60;1.80;;;22.00;47.20;;;;;;4984100;28;20489;-49
2022/05/14 07:55:26;;;;;;;3.37;1.90;;;22.00;47.70;;;;;;4982308;28;20479;-49
2022/05/14 07:57:54;;;;;;;3.07;2.00;;;22.00;47.10;;;;;;4982186;28;20871;-48
2022/05/14 08:00:23;;;;;;;3.23;1.93;;;22.00;47.00;;;;;;4982018;28;20493;-47
2022/05/14 08:02:52;;;;;;;2.47;1.43;;;21.90;47.20;;;;;;4980102;28;20445;-47
2022/05/14 08:05:20;;;;;;;2.27;1.67;;;21.90;47.30;;;;;;4979594;28;20501;-48
2022/05/14 08:07:49;;;;;;;2.00;1.20;;;21.90;47.50;;;;;;4973466;28;20967;-48
2022/05/14 08:10:17;;;;;;;1.57;1.47;;;21.90;47.60;;;;;;4983843;28;20482;-48
2022/05/14 08:12:47;;;;;;;13.13;2.77;;;21.90;47.80;;;;;;4973260;28;20450;-47
2022/05/14 08:15:25;;;;;;;6.50;2.60;;;21.80;47.10;;;;;;4973926;28;20569;-48
2022/05/14 08:17:53;;;;;;;5.80;1.70;;;21.80;47.00;;;;;;4981689;28;20881;-48
2022/05/14 08:20:22;;;;;;;5.23;1.77;;;21.80;47.20;;;;;;4978334;28;20560;-48
2022/05/14 08:25:37;;;;;;;3.30;1.80;;;21.80;47.40;;;;;;4982080;28;20474;-47
2022/05/14 08:28:05;;;;;;;4.90;1.70;;;21.80;47.50;;;;;;4978276;28;20537;-47
2022/05/14 08:30:36;;;;;;;2.90;1.63;;;21.80;47.50;;;;;;4974607;28;20474;-48
2022/05/14 08:33:07;;;;;;;3.10;1.60;;;21.80;47.60;;;;;;4977812;28;20480;-47
2022/05/14 08:35:35;;;;;;;3.20;1.80;;;21.80;47.70;;;;;;4985873;28;20465;-47
2022/05/14 08:38:03;;;;;;;2.20;1.77;;;21.80;47.80;;;;;;4982007;28;20470;-49
2022/05/14 08:40:34;;;;;;;4.63;2.30;;;21.80;47.80;;;;;;4978727;28;20479;-48
2022/05/14 08:43:04;;;;;;;3.93;1.80;;;21.80;47.60;;;;;;4984037;28;20446;-49
2022/05/14 08:45:37;;;;;;;2.37;2.00;;;21.90;47.70;;;;;;4985063;28;20657;-47
2022/05/14 08:48:11;;;;;;;5.40;3.00;;;21.90;47.90;;;;;;4987818;28;20430;-49
2022/05/14 08:50:40;;;;;;;8.00;3.20;;;21.90;47.60;;;;;;4983270;28;20528;-48
2022/05/14 08:53:12;;;;;;;7.60;3.67;;;21.90;47.20;;;;;;4986102;28;20426;-46
2022/05/14 08:55:46;;;;;;;8.20;2.47;;;21.90;46.90;;;;;;4984311;28;20897;-48
2022/05/14 08:58:21;;;;;;;7.03;3.60;;;22.00;46.80;;;;;;4980979;28;20473;-49
2022/05/14 09:00:51;;;;;;;4.10;2.73;;;21.90;46.30;;;;;;4980903;28;20477;-48
2022/05/14 09:03:21;;;;;;;5.60;2.63;;;21.90;46.20;;;;;;4979821;28;20446;-48
2022/05/14 09:05:55;;;;;;;5.83;3.60;;;21.90;45.60;;;;;;4975761;28;20473;-45
2022/05/14 09:08:24;;;;;;;5.80;3.13;;;21.80;45.50;;;;;;4971728;28;20792;-47
2022/05/14 09:10:59;;;;;;;8.80;3.10;;;21.70;45.30;;;;;;4976557;28;20522;-48
2022/05/14 09:13:28;;;;;;;7.20;3.70;;;21.70;45.20;;;;;;4975600;28;20959;-47
2022/05/14 09:16:02;;;;;;;8.47;3.43;;;21.70;45.60;;;;;;4986156;28;20484;-48
2022/05/14 09:18:34;;;;;;;4.90;2.40;;;21.70;46.40;;;;;;4985855;28;20469;-47
2022/05/14 09:21:06;;;;;;;4.40;2.77;;;21.60;46.50;;;;;;4982803;28;20461;-44
2022/05/14 09:23:43;;;;;;;9.10;2.63;;;21.70;47.10;;;;;;4978276;28;20447;-47
2022/05/14 09:26:17;;;;;;;4.10;2.33;;;21.70;47.30;;;;;;4969129;28;20515;-48
2022/05/14 09:28:52;;;;;;;2.43;1.53;;;21.70;47.30;;;;;;4974754;28;20501;-48
2022/05/14 09:31:27;;;;;;;4.20;2.17;;;21.70;47.50;;;;;;4979322;28;20442;-48
2022/05/14 09:34:06;;;;;;;5.70;3.10;;;21.70;47.70;;;;;;4981905;28;20964;-48
2022/05/14 09:36:48;;;;;;;5.80;3.30;;;21.70;47.90;;;;;;4974930;28;20977;-49
2022/05/14 09:39:19;;;;;;;3.60;3.07;;;21.60;47.40;;;;;;4985014;28;20529;-47
2022/05/14 09:41:51;;;;;;;8.90;3.80;;;21.50;47.70;;;;;;4973018;28;20443;-48
2022/05/14 09:44:24;;;;;;;8.50;4.13;;;21.50;48.00;;;;;;4982604;28;20474;-48
2022/05/14 09:47:06;;;;;;;5.30;3.40;;;21.50;47.30;;;;;;4980257;28;20461;-47
2022/05/14 09:49:39;;;;;;;6.03;3.40;;;21.40;47.90;;;;;;4985872;28;20470;-47
2022/05/14 09:52:10;;;;;;;8.80;3.20;;;21.40;48.80;;;;;;4978625;28;20446;-49
2022/05/14 09:54:42;;;;;;;5.87;3.47;;;21.40;48.60;;;;;;4985161;28;20478;-48
2022/05/14 09:57:32;;;;;;;8.90;2.87;;;21.30;48.30;;;;;;4977529;28;20471;-48
2022/05/14 10:00:12;;;;;;;6.80;3.50;;;21.30;48.50;;;;;;4983668;28;20601;-47
2022/05/14 10:03:05;;;;;;;10.93;3.80;;;21.30;48.70;;;;;;4974948;28;20448;-48
2022/05/14 10:05:48;;;;;;;4.50;2.80;;;21.20;49.20;;;;;;4971761;28;20883;-48
2022/05/14 10:08:29;;;;;;;11.87;4.40;;;21.20;49.00;;;;;;4979646;28;20453;-48
2022/05/14 10:11:06;;;;;;;10.90;3.20;;;21.20;49.00;;;;;;4974227;28;20478;-47
2022/05/14 10:13:42;;;;;;;10.37;4.57;;;21.10;48.80;;;;;;4982126;28;20442;-47
2022/05/14 10:16:18;;;;;;;11.00;3.30;;;21.10;49.60;;;;;;4978490;28;20473;-47
2022/05/14 10:19:05;;;;;;;6.80;3.47;;;21.20;49.60;;;;;;4980368;28;20458;-47
2022/05/14 10:21:44;;;;;;;5.30;2.63;;;21.20;49.30;;;;;;4978509;28;20509;-48
2022/05/14 10:27:24;;;;;;;3.40;2.20;;;21.30;49.10;;;;;;4975193;28;20474;-49
2022/05/14 10:30:03;;;;;;;7.57;3.20;;;21.30;48.90;;;;;;4981469;28;20470;-48
2022/05/14 10:32:33;;;;;;;4.77;3.10;;;21.40;48.90;;;;;;4982641;28;20434;-48
2022/05/14 10:35:09;;;;;;;8.90;3.00;;;21.40;49.00;;;;;;4974470;28;20993;-48
2022/05/14 10:37:47;;;;;;;6.20;3.10;;;21.40;48.90;;;;;;4978564;28;20476;-47
2022/05/14 10:40:21;;;;;;;3.13;2.83;;;21.50;49.10;;;;;;4985131;28;20560;-48
2022/05/14 10:43:21;;;;;;;3.20;2.70;;;21.50;48.90;;;;;;4977986;28;20821;-46
2022/05/14 10:45:53;;;;;;;3.77;2.40;;;21.50;48.90;;;;;;4979862;28;20879;-47
2022/05/14 10:48:39;;;;;;;3.30;2.90;;;21.50;48.80;;;;;;4984968;28;20949;-47
2022/05/14 10:51:10;;;;;;;4.40;2.33;;;21.60;49.20;;;;;;4975100;28;20462;-48
2022/05/14 10:53:41;;;;;;;6.07;2.80;;;21.60;49.00;;;;;;4975645;28;20426;-47
2022/05/14 10:56:13;;;;;;;3.47;1.83;;;21.50;48.90;;;;;;4974970;28;20466;-48
2022/05/14 10:58:54;;;;;;;6.10;2.40;;;21.60;48.90;;;;;;4972986;28;20466;-48
2022/05/14 11:01:33;;;;;;;4.13;2.30;;;21.60;48.90;;;;;;4971605;28;20576;-48
2022/05/14 11:04:14;;;;;;;3.07;2.07;;;21.60;48.90;;;;;;4976272;28;20537;-46
2022/05/14 11:06:54;;;;;;;4.77;2.90;;;21.60;49.00;;;;;;4980615;28;20461;-48
2022/05/14 11:09:37;;;;;;;4.73;3.00;;;21.60;48.70;;;;;;4983332;28;20475;-48
2022/05/14 11:12:09;;;;;;;3.37;2.10;;;21.70;48.60;;;;;;4978650;28;20929;-48
2022/05/14 11:14:41;;;;;;;4.53;2.30;;;21.70;48.90;;;;;;4979844;28;20457;-47
2022/05/14 11:17:23;;;;;;;4.53;2.13;;;21.70;48.40;;;;;;4983211;28;20946;-48
2022/05/14 11:19:53;;;;;;;3.80;2.30;;;21.60;48.70;;;;;;4979510;28;20474;-47
2022/05/14 11:22:29;;;;;;;3.93;2.10;;;21.70;48.70;;;;;;4979935;28;20446;-48
2022/05/14 11:24:58;;;;;;;5.50;2.00;;;21.70;48.70;;;;;;4979898;28;20465;-48
2022/05/14 11:27:32;;;;;;;4.93;2.37;;;21.70;48.60;;;;;;4974279;28;21433;-48
2022/05/14 11:30:04;;;;;;;3.70;1.90;;;21.70;48.60;;;;;;4981284;28;21003;-47
2022/05/14 11:32:44;;;;;;;3.20;2.10;;;21.70;48.80;;;;;;4977106;28;20453;-48
2022/05/14 11:35:15;;;;;;;3.73;2.63;;;21.70;48.90;;;;;;4975523;28;20477;-48
2022/05/14 11:37:47;;;;;;;2.30;2.10;;;21.70;48.80;;;;;;4973657;28;21008;-47
2022/05/14 11:40:26;;;;;;;5.10;2.07;;;21.70;48.80;;;;;;4983830;28;20492;-47
2022/05/14 11:43:11;;;;;;;2.53;2.33;;;21.70;49.00;;;;;;4968321;28;20461;-48
2022/05/14 11:45:49;;;;;;;3.13;2.13;;;21.70;48.90;;;;;;4982077;28;20488;-45
2022/05/14 11:48:25;;;;;;;5.50;2.30;;;21.70;48.90;;;;;;4981527;28;20480;-47
2022/05/14 11:51:03;;;;;;;2.83;2.40;;;21.70;48.90;;;;;;4978443;28;20501;-48
2022/05/14 11:53:39;;;;;;;3.53;2.13;;;21.80;48.80;;;;;;4984343;28;20432;-47
2022/05/14 11:56:11;;;;;;;6.10;2.20;;;21.70;48.80;;;;;;4980856;28;20465;-47
2022/05/14 11:58:44;;;;;;;4.13;2.03;;;21.80;50.20;;;;;;4976788;28;20448;-48
2022/05/14 12:01:17;;;;;;;2.27;1.67;;;21.80;49.00;;;;;;4981842;28;20512;-47
2022/05/14 12:03:47;;;;;;;2.27;2.07;;;21.80;49.10;;;;;;4982734;28;20449;-48
2022/05/14 12:06:30;;;;;;;2.20;1.80;;;21.80;49.10;;;;;;4975677;28;20998;-48
2022/05/14 12:09:11;;;;;;;6.20;2.60;;;21.80;49.10;;;;;;4981091;28;20469;-48
2022/05/14 12:11:48;;;;;;;3.70;2.00;;;21.80;48.70;;;;;;4977801;28;20446;-47
2022/05/14 12:14:19;;;;;;;10.20;3.50;;;21.80;48.60;;;;;;4976063;28;20462;-48
2022/05/14 12:16:51;;;;;;;3.80;2.50;;;21.80;48.40;;;;;;4977252;28;20467;-47
2022/05/14 12:19:22;;;;;;;5.17;1.97;;;21.80;48.10;;;;;;4982829;28;20497;-47
2022/05/14 12:21:56;;;;;;;2.30;2.00;;;21.80;48.60;;;;;;4977996;28;20449;-47
2022/05/14 12:24:30;;;;;;;2.30;2.10;;;21.80;48.80;;;;;;4986836;28;20548;-48
2022/05/14 12:26:59;;;;;;;6.23;2.10;;;21.90;48.80;;;;;;4973991;28;20577;-45
2022/05/14 12:29:31;;;;;;;4.37;2.10;;;21.80;48.40;;;;;;4974678;28;20529;-48
2022/05/14 12:34:48;;;;;;;5.80;2.47;;;21.90;48.80;;;;;;4972340;28;20475;-48
2022/05/14 12:37:27;;;;;;;3.40;2.13;;;21.80;48.80;;;;;;4984630;28;20469;-47
2022/05/14 12:40:01;;;;;;;5.23;2.47;;;21.90;48.90;;;;;;4979445;28;20473;-48
2022/05/14 12:42:35;;;;;;;3.10;2.10;;;21.90;49.10;;;;;;4976061;28;21005;-48
2022/05/14 12:45:05;;;;;;;4.07;1.90;;;21.90;49.10;;;;;;4977616;28;20509;-50
2022/05/14 12:47:37;;;;;;;3.13;1.90;;;21.90;49.30;;;;;;4976055;28;20902;-45
2022/05/14 12:50:19;;;;;;;3.40;2.10;;;21.90;49.10;;;;;;4978744;28;20466;-48
2022/05/14 12:52:54;;;;;;;4.00;2.40;;;21.90;49.10;;;;;;4979475;28;20441;-48
2022/05/14 12:55:26;;;;;;;4.20;2.30;;;21.90;48.30;;;;;;4981839;28;20588;-48
2022/05/14 12:57:55;;;;;;;2.13;1.90;;;21.90;48.30;;;;;;4970128;28;20540;-48
2022/05/14 13:00:24;;;;;;;4.00;2.20;;;21.90;48.70;;;;;;4980716;28;21006;-48
2022/05/14 13:02:58;;;;;;;1.57;1.47;;;22.00;48.90;;;;;;4982307;28;20917;-48
2022/05/14 13:05:31;;;;;;;5.07;2.00;;;22.00;49.10;;;;;;4971365;28;20480;-48
2022/05/14 13:08:11;;;;;;;2.43;1.80;;;22.00;48.90;;;;;;4979532;28;20445;-48
2022/05/14 13:10:47;;;;;;;2.20;2.00;;;22.00;48.50;;;;;;4982436;28;21418;-47
2022/05/14 13:13:18;;;;;;;3.20;1.80;;;22.00;48.40;;;;;;4969491;28;20445;-48
2022/05/14 13:15:53;;;;;;;6.90;2.57;;;22.00;49.10;;;;;;4973691;28;20497;-46
2022/05/14 13:18:24;;;;;;;6.47;2.20;;;22.10;48.90;;;;;;4982599;28;20852;-48
2022/05/14 13:21:00;;;;;;;3.80;2.00;;;22.10;48.60;;;;;;4979060;28;20506;-48
2022/05/14 13:23:29;;;;;;;7.37;2.70;;;22.20;47.60;;;;;;4968469;28;20442;-49
2022/05/14 13:26:02;;;;;;;3.30;2.37;;;22.20;47.80;;;;;;4977100;28;20543;-48
2022/05/14 13:28:33;;;;;;;3.30;2.40;;;22.20;47.80;;;;;;4981429;28;21032;-47
2022/05/14 13:31:05;;;;;;;3.17;1.90;;;22.20;47.70;;;;;;4970140;28;20969;-47
2022/05/14 13:33:36;;;;;;;2.13;1.90;;;22.10;47.70;;;;;;4977423;28;20513;-48
2022/05/14 13:38:58;;;;;;;3.90;2.40;;;22.10;47.80;;;;;;4984092;28;20790;-46
2022/05/14 13:41:31;;;;;;;2.90;2.17;;;22.10;47.60;;;;;;4974484;28;20936;-48